sensor_id;sensor_type;location;lat;lon;timestamp;P1;durP1;ratioP1;P2;durP2;ratioP2
20076;SDS011;12348;42.710;23.378;2024-02-26T00:01:50;13.80;;;6.57;;
20076;SDS011;12348;42.710;23.378;2024-02-26T00:04:17;9.77;;;5.37;;
20076;SDS011;12348;42.710;23.378;2024-02-26T00:06:44;13.67;;;7.00;;
20076;SDS011;12348;42.710;23.378;2024-02-26T00:09:11;11.90;;;8.07;;
20076;SDS011;12348;42.710;23.378;2024-02-26T00:11:38;14.50;;;7.30;;
20076;SDS011;12348;42.710;23.378;2024-02-26T00:14:04;11.80;;;7.67;;
20076;SDS011;12348;42.710;23.378;2024-02-26T00:16:31;9.80;;;6.23;;
20076;SDS011;12348;42.710;23.378;2024-02-26T00:19:00;12.43;;;5.77;;
20076;SDS011;12348;42.710;23.378;2024-02-26T00:21:26;16.73;;;8.00;;
20076;SDS011;12348;42.710;23.378;2024-02-26T00:23:53;7.90;;;5.93;;
20076;SDS011;12348;42.710;23.378;2024-02-26T00:26:20;11.90;;;6.83;;
20076;SDS011;12348;42.710;23.378;2024-02-26T00:28:47;10.37;;;7.57;;
20076;SDS011;12348;42.710;23.378;2024-02-26T00:31:13;19.13;;;5.03;;
20076;SDS011;12348;42.710;23.378;2024-02-26T00:33:40;9.67;;;6.33;;
20076;SDS011;12348;42.710;23.378;2024-02-26T00:36:09;11.37;;;7.07;;
20076;SDS011;12348;42.710;23.378;2024-02-26T00:38:35;6.90;;;5.77;;
20076;SDS011;12348;42.710;23.378;2024-02-26T00:41:02;18.23;;;8.07;;
20076;SDS011;12348;42.710;23.378;2024-02-26T00:43:29;9.47;;;6.20;;
20076;SDS011;12348;42.710;23.378;2024-02-26T00:45:56;12.30;;;6.03;;
20076;SDS011;12348;42.710;23.378;2024-02-26T00:48:23;21.10;;;7.63;;
20076;SDS011;12348;42.710;23.378;2024-02-26T00:50:50;16.40;;;6.53;;
20076;SDS011;12348;42.710;23.378;2024-02-26T00:53:18;9.33;;;6.97;;
20076;SDS011;12348;42.710;23.378;2024-02-26T00:55:45;13.73;;;7.33;;
20076;SDS011;12348;42.710;23.378;2024-02-26T00:58:12;12.13;;;7.27;;
20076;SDS011;12348;42.710;23.378;2024-02-26T01:00:38;7.50;;;5.77;;
20076;SDS011;12348;42.710;23.378;2024-02-26T01:03:05;11.57;;;7.07;;
20076;SDS011;12348;42.710;23.378;2024-02-26T01:05:32;9.03;;;5.27;;
20076;SDS011;12348;42.710;23.378;2024-02-26T01:07:58;15.43;;;5.77;;
20076;SDS011;12348;42.710;23.378;2024-02-26T01:10:26;14.33;;;7.97;;
20076;SDS011;12348;42.710;23.378;2024-02-26T01:12:53;13.87;;;7.70;;
20076;SDS011;12348;42.710;23.378;2024-02-26T01:15:20;17.80;;;7.67;;
20076;SDS011;12348;42.710;23.378;2024-02-26T01:17:48;17.90;;;7.57;;
20076;SDS011;12348;42.710;23.378;2024-02-26T01:20:15;12.50;;;6.73;;
20076;SDS011;12348;42.710;23.378;2024-02-26T01:22:42;8.00;;;6.60;;
20076;SDS011;12348;42.710;23.378;2024-02-26T01:25:09;14.77;;;7.97;;
20076;SDS011;12348;42.710;23.378;2024-02-26T01:27:38;8.43;;;6.17;;
20076;SDS011;12348;42.710;23.378;2024-02-26T01:30:06;15.93;;;6.57;;
20076;SDS011;12348;42.710;23.378;2024-02-26T01:32:33;15.40;;;5.10;;
20076;SDS011;12348;42.710;23.378;2024-02-26T01:35:01;15.30;;;5.83;;
20076;SDS011;12348;42.710;23.378;2024-02-26T01:37:28;16.00;;;6.47;;
20076;SDS011;12348;42.710;23.378;2024-02-26T01:39:55;11.57;;;5.87;;
20076;SDS011;12348;42.710;23.378;2024-02-26T01:42:23;10.27;;;5.37;;
20076;SDS011;12348;42.710;23.378;2024-02-26T01:44:51;7.80;;;6.33;;
20076;SDS011;12348;42.710;23.378;2024-02-26T01:47:18;22.27;;;9.10;;
20076;SDS011;12348;42.710;23.378;2024-02-26T01:49:44;13.20;;;8.80;;
20076;SDS011;12348;42.710;23.378;2024-02-26T01:52:11;16.63;;;10.60;;
20076;SDS011;12348;42.710;23.378;2024-02-26T01:54:38;11.97;;;7.87;;
20076;SDS011;12348;42.710;23.378;2024-02-26T01:57:06;12.33;;;6.77;;
20076;SDS011;12348;42.710;23.378;2024-02-26T01:59:34;11.00;;;6.70;;
20076;SDS011;12348;42.710;23.378;2024-02-26T02:02:03;13.57;;;6.33;;
20076;SDS011;12348;42.710;23.378;2024-02-26T02:04:33;3.60;;;1.93;;
20076;SDS011;12348;42.710;23.378;2024-02-26T02:07:00;8.60;;;5.20;;
20076;SDS011;12348;42.710;23.378;2024-02-26T02:09:28;14.10;;;6.13;;
20076;SDS011;12348;42.710;23.378;2024-02-26T02:11:54;18.30;;;5.60;;
20076;SDS011;12348;42.710;23.378;2024-02-26T02:14:22;11.37;;;5.87;;
20076;SDS011;12348;42.710;23.378;2024-02-26T02:16:49;8.63;;;6.20;;
20076;SDS011;12348;42.710;23.378;2024-02-26T02:19:17;17.23;;;8.03;;
20076;SDS011;12348;42.710;23.378;2024-02-26T02:21:45;9.57;;;6.67;;
20076;SDS011;12348;42.710;23.378;2024-02-26T02:24:12;17.60;;;8.87;;
20076;SDS011;12348;42.710;23.378;2024-02-26T02:26:38;16.63;;;7.73;;
20076;SDS011;12348;42.710;23.378;2024-02-26T02:29:06;15.90;;;6.13;;
20076;SDS011;12348;42.710;23.378;2024-02-26T02:31:34;14.33;;;6.87;;
20076;SDS011;12348;42.710;23.378;2024-02-26T02:34:01;10.00;;;7.33;;
20076;SDS011;12348;42.710;23.378;2024-02-26T02:36:28;11.83;;;7.17;;
20076;SDS011;12348;42.710;23.378;2024-02-26T02:38:56;19.17;;;8.53;;
20076;SDS011;12348;42.710;23.378;2024-02-26T02:41:23;14.07;;;5.47;;
20076;SDS011;12348;42.710;23.378;2024-02-26T02:43:51;9.80;;;5.87;;
20076;SDS011;12348;42.710;23.378;2024-02-26T02:46:19;15.50;;;6.10;;
20076;SDS011;12348;42.710;23.378;2024-02-26T02:48:46;10.47;;;6.77;;
20076;SDS011;12348;42.710;23.378;2024-02-26T02:51:13;9.50;;;7.30;;
20076;SDS011;12348;42.710;23.378;2024-02-26T02:53:40;16.83;;;6.07;;
20076;SDS011;12348;42.710;23.378;2024-02-26T02:56:08;19.00;;;6.17;;
20076;SDS011;12348;42.710;23.378;2024-02-26T02:58:34;13.60;;;7.07;;
20076;SDS011;12348;42.710;23.378;2024-02-26T03:01:01;11.27;;;7.00;;
20076;SDS011;12348;42.710;23.378;2024-02-26T03:03:28;20.30;;;9.67;;
20076;SDS011;12348;42.710;23.378;2024-02-26T03:05:55;9.53;;;6.43;;
20076;SDS011;12348;42.710;23.378;2024-02-26T03:08:22;18.07;;;7.73;;
20076;SDS011;12348;42.710;23.378;2024-02-26T03:10:49;12.97;;;7.03;;
20076;SDS011;12348;42.710;23.378;2024-02-26T03:13:17;4.73;;;3.73;;
20076;SDS011;12348;42.710;23.378;2024-02-26T03:15:44;10.23;;;6.90;;
20076;SDS011;12348;42.710;23.378;2024-02-26T03:18:10;13.57;;;7.50;;
20076;SDS011;12348;42.710;23.378;2024-02-26T03:20:37;11.33;;;7.03;;
20076;SDS011;12348;42.710;23.378;2024-02-26T03:23:04;15.87;;;8.23;;
20076;SDS011;12348;42.710;23.378;2024-02-26T03:25:30;18.17;;;7.93;;
20076;SDS011;12348;42.710;23.378;2024-02-26T03:27:57;10.47;;;7.27;;
20076;SDS011;12348;42.710;23.378;2024-02-26T03:30:29;20.20;;;10.77;;
20076;SDS011;12348;42.710;23.378;2024-02-26T03:32:56;16.70;;;8.10;;
20076;SDS011;12348;42.710;23.378;2024-02-26T03:35:23;11.87;;;6.93;;
20076;SDS011;12348;42.710;23.378;2024-02-26T03:37:49;10.97;;;7.00;;
20076;SDS011;12348;42.710;23.378;2024-02-26T03:40:16;11.37;;;8.30;;
20076;SDS011;12348;42.710;23.378;2024-02-26T03:42:44;9.70;;;5.87;;
20076;SDS011;12348;42.710;23.378;2024-02-26T03:45:11;14.67;;;5.33;;
20076;SDS011;12348;42.710;23.378;2024-02-26T03:47:39;11.57;;;7.90;;
20076;SDS011;12348;42.710;23.378;2024-02-26T03:50:06;16.67;;;7.67;;
20076;SDS011;12348;42.710;23.378;2024-02-26T03:52:34;12.77;;;6.73;;
20076;SDS011;12348;42.710;23.378;2024-02-26T03:55:00;6.80;;;3.73;;
20076;SDS011;12348;42.710;23.378;2024-02-26T03:57:27;14.30;;;6.50;;
20076;SDS011;12348;42.710;23.378;2024-02-26T03:59:54;13.97;;;7.67;;
20076;SDS011;12348;42.710;23.378;2024-02-26T04:02:21;11.50;;;5.40;;
20076;SDS011;12348;42.710;23.378;2024-02-26T04:04:49;12.07;;;5.03;;
20076;SDS011;12348;42.710;23.378;2024-02-26T04:07:16;14.70;;;7.73;;
20076;SDS011;12348;42.710;23.378;2024-02-26T04:09:42;11.63;;;5.77;;
20076;SDS011;12348;42.710;23.378;2024-02-26T04:12:09;8.73;;;4.43;;
20076;SDS011;12348;42.710;23.378;2024-02-26T04:14:36;7.97;;;5.07;;
20076;SDS011;12348;42.710;23.378;2024-02-26T04:17:03;15.97;;;6.07;;
20076;SDS011;12348;42.710;23.378;2024-02-26T04:19:29;10.23;;;4.87;;
20076;SDS011;12348;42.710;23.378;2024-02-26T04:21:57;9.93;;;5.67;;
20076;SDS011;12348;42.710;23.378;2024-02-26T04:24:25;15.57;;;7.70;;
20076;SDS011;12348;42.710;23.378;2024-02-26T04:26:52;12.33;;;4.83;;
20076;SDS011;12348;42.710;23.378;2024-02-26T04:29:19;11.57;;;5.57;;
20076;SDS011;12348;42.710;23.378;2024-02-26T04:31:45;8.43;;;5.73;;
20076;SDS011;12348;42.710;23.378;2024-02-26T04:34:13;11.80;;;4.77;;
20076;SDS011;12348;42.710;23.378;2024-02-26T04:36:39;4.90;;;4.40;;
20076;SDS011;12348;42.710;23.378;2024-02-26T04:39:08;9.00;;;5.83;;
20076;SDS011;12348;42.710;23.378;2024-02-26T04:41:36;4.40;;;4.03;;
20076;SDS011;12348;42.710;23.378;2024-02-26T04:44:03;9.53;;;4.73;;
20076;SDS011;12348;42.710;23.378;2024-02-26T04:46:29;7.93;;;3.87;;
20076;SDS011;12348;42.710;23.378;2024-02-26T04:48:56;9.77;;;5.27;;
20076;SDS011;12348;42.710;23.378;2024-02-26T04:51:23;13.87;;;5.50;;
20076;SDS011;12348;42.710;23.378;2024-02-26T04:53:50;14.50;;;6.43;;
20076;SDS011;12348;42.710;23.378;2024-02-26T04:56:20;7.83;;;4.33;;
20076;SDS011;12348;42.710;23.378;2024-02-26T04:58:46;10.33;;;6.87;;
20076;SDS011;12348;42.710;23.378;2024-02-26T05:01:13;11.13;;;5.50;;
20076;SDS011;12348;42.710;23.378;2024-02-26T05:03:41;8.40;;;4.93;;
20076;SDS011;12348;42.710;23.378;2024-02-26T05:06:10;12.50;;;5.40;;
20076;SDS011;12348;42.710;23.378;2024-02-26T05:08:38;7.43;;;5.03;;
20076;SDS011;12348;42.710;23.378;2024-02-26T05:11:04;8.73;;;7.07;;
20076;SDS011;12348;42.710;23.378;2024-02-26T05:13:33;11.43;;;6.13;;
20076;SDS011;12348;42.710;23.378;2024-02-26T05:15:59;11.13;;;5.53;;
20076;SDS011;12348;42.710;23.378;2024-02-26T05:18:26;12.00;;;7.10;;
20076;SDS011;12348;42.710;23.378;2024-02-26T05:20:53;12.90;;;5.57;;
20076;SDS011;12348;42.710;23.378;2024-02-26T05:23:20;14.97;;;6.27;;
20076;SDS011;12348;42.710;23.378;2024-02-26T05:25:48;12.73;;;5.83;;
20076;SDS011;12348;42.710;23.378;2024-02-26T05:28:15;9.33;;;6.93;;
20076;SDS011;12348;42.710;23.378;2024-02-26T05:30:43;11.70;;;8.17;;
20076;SDS011;12348;42.710;23.378;2024-02-26T05:33:09;19.20;;;8.07;;
20076;SDS011;12348;42.710;23.378;2024-02-26T05:35:36;9.67;;;6.27;;
20076;SDS011;12348;42.710;23.378;2024-02-26T05:38:03;17.33;;;6.57;;
20076;SDS011;12348;42.710;23.378;2024-02-26T05:40:31;14.33;;;7.63;;
20076;SDS011;12348;42.710;23.378;2024-02-26T05:42:58;12.17;;;6.60;;
20076;SDS011;12348;42.710;23.378;2024-02-26T05:45:25;14.40;;;7.10;;
20076;SDS011;12348;42.710;23.378;2024-02-26T05:47:53;9.30;;;5.37;;
20076;SDS011;12348;42.710;23.378;2024-02-26T05:50:19;12.40;;;5.20;;
20076;SDS011;12348;42.710;23.378;2024-02-26T05:52:46;8.67;;;5.23;;
20076;SDS011;12348;42.710;23.378;2024-02-26T05:55:13;2.73;;;1.80;;
20076;SDS011;12348;42.710;23.378;2024-02-26T05:57:40;10.27;;;6.10;;
20076;SDS011;12348;42.710;23.378;2024-02-26T06:00:07;11.27;;;4.20;;
20076;SDS011;12348;42.710;23.378;2024-02-26T06:02:34;8.87;;;5.43;;
20076;SDS011;12348;42.710;23.378;2024-02-26T06:05:03;12.80;;;5.97;;
20076;SDS011;12348;42.710;23.378;2024-02-26T06:07:32;8.83;;;5.40;;
20076;SDS011;12348;42.710;23.378;2024-02-26T06:09:59;8.67;;;4.43;;
20076;SDS011;12348;42.710;23.378;2024-02-26T06:12:26;12.80;;;6.63;;
20076;SDS011;12348;42.710;23.378;2024-02-26T06:14:55;8.93;;;5.53;;
20076;SDS011;12348;42.710;23.378;2024-02-26T06:17:23;19.57;;;10.83;;
20076;SDS011;12348;42.710;23.378;2024-02-26T06:19:50;9.33;;;6.40;;
20076;SDS011;12348;42.710;23.378;2024-02-26T06:22:19;9.00;;;6.13;;
20076;SDS011;12348;42.710;23.378;2024-02-26T06:24:45;17.83;;;8.57;;
20076;SDS011;12348;42.710;23.378;2024-02-26T06:27:12;6.30;;;5.63;;
20076;SDS011;12348;42.710;23.378;2024-02-26T06:29:39;12.93;;;7.17;;
20076;SDS011;12348;42.710;23.378;2024-02-26T06:32:06;14.40;;;6.43;;
20076;SDS011;12348;42.710;23.378;2024-02-26T06:34:32;10.03;;;5.47;;
20076;SDS011;12348;42.710;23.378;2024-02-26T06:36:59;15.03;;;8.63;;
20076;SDS011;12348;42.710;23.378;2024-02-26T06:39:27;9.67;;;5.73;;
20076;SDS011;12348;42.710;23.378;2024-02-26T06:41:54;10.80;;;6.13;;
20076;SDS011;12348;42.710;23.378;2024-02-26T06:44:25;5.77;;;4.13;;
20076;SDS011;12348;42.710;23.378;2024-02-26T06:46:56;10.10;;;6.37;;
20076;SDS011;12348;42.710;23.378;2024-02-26T06:49:23;16.70;;;6.30;;
20076;SDS011;12348;42.710;23.378;2024-02-26T06:51:50;14.77;;;6.43;;
20076;SDS011;12348;42.710;23.378;2024-02-26T06:54:16;10.97;;;7.00;;
20076;SDS011;12348;42.710;23.378;2024-02-26T06:56:44;10.97;;;7.70;;
20076;SDS011;12348;42.710;23.378;2024-02-26T06:59:11;12.53;;;9.27;;
20076;SDS011;12348;42.710;23.378;2024-02-26T07:01:39;12.83;;;8.03;;
20076;SDS011;12348;42.710;23.378;2024-02-26T07:04:07;18.03;;;6.40;;
20076;SDS011;12348;42.710;23.378;2024-02-26T07:06:35;16.70;;;8.63;;
20076;SDS011;12348;42.710;23.378;2024-02-26T07:09:02;13.60;;;8.17;;
20076;SDS011;12348;42.710;23.378;2024-02-26T07:11:29;16.83;;;6.50;;
20076;SDS011;12348;42.710;23.378;2024-02-26T07:13:57;13.63;;;7.67;;
20076;SDS011;12348;42.710;23.378;2024-02-26T07:16:24;14.60;;;7.63;;
20076;SDS011;12348;42.710;23.378;2024-02-26T07:18:51;18.27;;;7.97;;
20076;SDS011;12348;42.710;23.378;2024-02-26T07:21:18;20.27;;;8.53;;
20076;SDS011;12348;42.710;23.378;2024-02-26T07:23:45;12.20;;;7.57;;
20076;SDS011;12348;42.710;23.378;2024-02-26T07:26:11;14.83;;;7.80;;
20076;SDS011;12348;42.710;23.378;2024-02-26T07:28:38;11.33;;;6.50;;
20076;SDS011;12348;42.710;23.378;2024-02-26T07:31:06;11.37;;;6.80;;
20076;SDS011;12348;42.710;23.378;2024-02-26T07:33:33;19.33;;;8.43;;
20076;SDS011;12348;42.710;23.378;2024-02-26T07:36:00;16.60;;;9.63;;
20076;SDS011;12348;42.710;23.378;2024-02-26T07:38:27;13.67;;;7.90;;
20076;SDS011;12348;42.710;23.378;2024-02-26T07:40:54;18.60;;;7.97;;
20076;SDS011;12348;42.710;23.378;2024-02-26T07:43:22;17.70;;;8.10;;
20076;SDS011;12348;42.710;23.378;2024-02-26T07:45:48;11.87;;;7.33;;
20076;SDS011;12348;42.710;23.378;2024-02-26T07:48:17;10.77;;;7.93;;
20076;SDS011;12348;42.710;23.378;2024-02-26T07:50:43;13.67;;;7.40;;
20076;SDS011;12348;42.710;23.378;2024-02-26T07:53:10;18.83;;;6.33;;
20076;SDS011;12348;42.710;23.378;2024-02-26T07:55:37;14.30;;;9.23;;
20076;SDS011;12348;42.710;23.378;2024-02-26T07:58:04;16.07;;;8.13;;
20076;SDS011;12348;42.710;23.378;2024-02-26T08:00:31;18.80;;;7.07;;
20076;SDS011;12348;42.710;23.378;2024-02-26T08:02:58;13.63;;;7.97;;
20076;SDS011;12348;42.710;23.378;2024-02-26T08:05:26;15.30;;;9.83;;
20076;SDS011;12348;42.710;23.378;2024-02-26T08:07:52;16.60;;;7.27;;
20076;SDS011;12348;42.710;23.378;2024-02-26T08:10:20;14.27;;;7.03;;
20076;SDS011;12348;42.710;23.378;2024-02-26T08:12:46;7.30;;;5.13;;
20076;SDS011;12348;42.710;23.378;2024-02-26T08:15:13;17.77;;;8.60;;
20076;SDS011;12348;42.710;23.378;2024-02-26T08:17:40;15.10;;;9.40;;
20076;SDS011;12348;42.710;23.378;2024-02-26T08:20:07;23.03;;;7.17;;
20076;SDS011;12348;42.710;23.378;2024-02-26T08:22:36;15.07;;;7.57;;
20076;SDS011;12348;42.710;23.378;2024-02-26T08:25:04;16.93;;;9.93;;
20076;SDS011;12348;42.710;23.378;2024-02-26T08:27:34;8.43;;;6.57;;
20076;SDS011;12348;42.710;23.378;2024-02-26T08:30:01;17.57;;;9.70;;
20076;SDS011;12348;42.710;23.378;2024-02-26T08:32:28;12.87;;;7.37;;
20076;SDS011;12348;42.710;23.378;2024-02-26T08:34:54;17.50;;;8.60;;
20076;SDS011;12348;42.710;23.378;2024-02-26T08:37:22;16.53;;;8.80;;
20076;SDS011;12348;42.710;23.378;2024-02-26T08:39:51;37.93;;;16.30;;
20076;SDS011;12348;42.710;23.378;2024-02-26T08:42:17;24.17;;;10.03;;
20076;SDS011;12348;42.710;23.378;2024-02-26T08:44:44;39.53;;;11.30;;
20076;SDS011;12348;42.710;23.378;2024-02-26T08:47:10;18.13;;;9.27;;
20076;SDS011;12348;42.710;23.378;2024-02-26T08:49:42;21.77;;;11.73;;
20076;SDS011;12348;42.710;23.378;2024-02-26T08:52:09;28.63;;;12.10;;
20076;SDS011;12348;42.710;23.378;2024-02-26T08:54:35;19.47;;;8.67;;
20076;SDS011;12348;42.710;23.378;2024-02-26T08:57:04;19.47;;;8.13;;
20076;SDS011;12348;42.710;23.378;2024-02-26T08:59:30;14.87;;;6.50;;
20076;SDS011;12348;42.710;23.378;2024-02-26T09:01:57;12.17;;;7.20;;
20076;SDS011;12348;42.710;23.378;2024-02-26T09:04:24;13.17;;;5.10;;
20076;SDS011;12348;42.710;23.378;2024-02-26T09:06:51;13.73;;;8.20;;
20076;SDS011;12348;42.710;23.378;2024-02-26T09:09:18;11.10;;;6.93;;
20076;SDS011;12348;42.710;23.378;2024-02-26T09:11:45;13.87;;;6.57;;
20076;SDS011;12348;42.710;23.378;2024-02-26T09:14:13;4.47;;;2.73;;
20076;SDS011;12348;42.710;23.378;2024-02-26T09:16:40;0.37;;;0.37;;
20076;SDS011;12348;42.710;23.378;2024-02-26T09:19:07;1.20;;;1.13;;
20076;SDS011;12348;42.710;23.378;2024-02-26T09:21:34;1.60;;;0.80;;
20076;SDS011;12348;42.710;23.378;2024-02-26T09:24:00;2.27;;;1.40;;
20076;SDS011;12348;42.710;23.378;2024-02-26T09:26:27;1.07;;;0.83;;
20076;SDS011;12348;42.710;23.378;2024-02-26T09:28:54;0.67;;;0.63;;
20076;SDS011;12348;42.710;23.378;2024-02-26T09:31:22;2.73;;;2.57;;
20076;SDS011;12348;42.710;23.378;2024-02-26T09:33:49;3.13;;;1.77;;
20076;SDS011;12348;42.710;23.378;2024-02-26T09:36:16;3.70;;;2.83;;
20076;SDS011;12348;42.710;23.378;2024-02-26T09:38:42;3.33;;;2.20;;
20076;SDS011;12348;42.710;23.378;2024-02-26T09:41:10;3.47;;;2.43;;
20076;SDS011;12348;42.710;23.378;2024-02-26T09:43:42;2.10;;;1.90;;
20076;SDS011;12348;42.710;23.378;2024-02-26T09:46:11;6.33;;;3.47;;
20076;SDS011;12348;42.710;23.378;2024-02-26T09:48:40;2.67;;;2.10;;
20076;SDS011;12348;42.710;23.378;2024-02-26T09:51:09;3.00;;;2.43;;
20076;SDS011;12348;42.710;23.378;2024-02-26T09:53:36;6.47;;;3.10;;
20076;SDS011;12348;42.710;23.378;2024-02-26T09:56:08;3.77;;;2.63;;
20076;SDS011;12348;42.710;23.378;2024-02-26T09:58:36;13.57;;;2.73;;
20076;SDS011;12348;42.710;23.378;2024-02-26T10:01:04;8.47;;;2.57;;
20076;SDS011;12348;42.710;23.378;2024-02-26T10:03:38;6.73;;;2.83;;
20076;SDS011;12348;42.710;23.378;2024-02-26T10:06:09;4.30;;;2.47;;
20076;SDS011;12348;42.710;23.378;2024-02-26T10:08:35;3.93;;;2.57;;
20076;SDS011;12348;42.710;23.378;2024-02-26T10:11:03;5.07;;;4.10;;
20076;SDS011;12348;42.710;23.378;2024-02-26T10:13:31;4.87;;;2.47;;
20076;SDS011;12348;42.710;23.378;2024-02-26T10:15:58;4.80;;;2.67;;
20076;SDS011;12348;42.710;23.378;2024-02-26T10:18:28;2.70;;;1.93;;
20076;SDS011;12348;42.710;23.378;2024-02-26T10:21:12;4.83;;;2.97;;
20076;SDS011;12348;42.710;23.378;2024-02-26T10:23:41;5.83;;;2.83;;
20076;SDS011;12348;42.710;23.378;2024-02-26T10:26:08;4.20;;;2.57;;
20076;SDS011;12348;42.710;23.378;2024-02-26T10:28:37;5.30;;;3.63;;
20076;SDS011;12348;42.710;23.378;2024-02-26T10:31:03;8.27;;;2.87;;
20076;SDS011;12348;42.710;23.378;2024-02-26T10:33:31;3.87;;;2.70;;
20076;SDS011;12348;42.710;23.378;2024-02-26T10:36:02;6.80;;;2.47;;
20076;SDS011;12348;42.710;23.378;2024-02-26T10:38:29;5.43;;;2.33;;
20076;SDS011;12348;42.710;23.378;2024-02-26T10:40:56;4.07;;;3.00;;
20076;SDS011;12348;42.710;23.378;2024-02-26T10:43:23;6.87;;;2.73;;
20076;SDS011;12348;42.710;23.378;2024-02-26T10:45:51;3.20;;;2.40;;
20076;SDS011;12348;42.710;23.378;2024-02-26T10:48:18;3.83;;;2.90;;
20076;SDS011;12348;42.710;23.378;2024-02-26T10:50:45;4.20;;;2.70;;
20076;SDS011;12348;42.710;23.378;2024-02-26T10:53:15;4.47;;;3.17;;
20076;SDS011;12348;42.710;23.378;2024-02-26T10:55:47;5.43;;;2.67;;
20076;SDS011;12348;42.710;23.378;2024-02-26T10:58:15;3.53;;;2.00;;
20076;SDS011;12348;42.710;23.378;2024-02-26T11:00:43;6.07;;;3.53;;
20076;SDS011;12348;42.710;23.378;2024-02-26T11:03:10;3.10;;;2.07;;
20076;SDS011;12348;42.710;23.378;2024-02-26T11:05:38;4.37;;;2.20;;
20076;SDS011;12348;42.710;23.378;2024-02-26T11:08:07;5.67;;;1.60;;
20076;SDS011;12348;42.710;23.378;2024-02-26T11:10:37;2.97;;;2.13;;
20076;SDS011;12348;42.710;23.378;2024-02-26T11:13:04;4.40;;;2.13;;
20076;SDS011;12348;42.710;23.378;2024-02-26T11:15:32;3.87;;;2.97;;
20076;SDS011;12348;42.710;23.378;2024-02-26T11:17:59;2.63;;;1.63;;
20076;SDS011;12348;42.710;23.378;2024-02-26T11:20:28;4.47;;;1.97;;
20076;SDS011;12348;42.710;23.378;2024-02-26T11:22:55;2.93;;;1.83;;
20076;SDS011;12348;42.710;23.378;2024-02-26T11:25:22;2.50;;;2.00;;
20076;SDS011;12348;42.710;23.378;2024-02-26T11:27:52;2.90;;;2.10;;
20076;SDS011;12348;42.710;23.378;2024-02-26T11:30:23;2.33;;;2.13;;
20076;SDS011;12348;42.710;23.378;2024-02-26T11:32:52;4.17;;;1.97;;
20076;SDS011;12348;42.710;23.378;2024-02-26T11:35:19;5.73;;;2.47;;
20076;SDS011;12348;42.710;23.378;2024-02-26T11:37:55;1.87;;;1.67;;
20076;SDS011;12348;42.710;23.378;2024-02-26T11:40:23;3.33;;;2.40;;
20076;SDS011;12348;42.710;23.378;2024-02-26T11:42:52;3.47;;;2.00;;
20076;SDS011;12348;42.710;23.378;2024-02-26T11:45:47;2.33;;;1.63;;
20076;SDS011;12348;42.710;23.378;2024-02-26T11:48:19;3.57;;;2.03;;
20076;SDS011;12348;42.710;23.378;2024-02-26T11:50:47;7.80;;;2.97;;
20076;SDS011;12348;42.710;23.378;2024-02-26T11:53:24;6.93;;;1.90;;
20076;SDS011;12348;42.710;23.378;2024-02-26T11:58:49;2.57;;;1.47;;
20076;SDS011;12348;42.710;23.378;2024-02-26T12:01:35;3.93;;;1.80;;
20076;SDS011;12348;42.710;23.378;2024-02-26T12:04:04;2.73;;;2.00;;
20076;SDS011;12348;42.710;23.378;2024-02-26T12:06:31;1.93;;;1.50;;
20076;SDS011;12348;42.710;23.378;2024-02-26T12:09:06;1.73;;;1.60;;
20076;SDS011;12348;42.710;23.378;2024-02-26T12:11:33;5.20;;;2.40;;
20076;SDS011;12348;42.710;23.378;2024-02-26T12:14:07;4.23;;;1.63;;
20076;SDS011;12348;42.710;23.378;2024-02-26T12:16:35;3.50;;;1.73;;
20076;SDS011;12348;42.710;23.378;2024-02-26T12:19:03;2.60;;;1.77;;
20076;SDS011;12348;42.710;23.378;2024-02-26T12:21:32;3.30;;;2.13;;
20076;SDS011;12348;42.710;23.378;2024-02-26T12:24:09;3.70;;;1.80;;
20076;SDS011;12348;42.710;23.378;2024-02-26T12:26:37;2.93;;;2.30;;
20076;SDS011;12348;42.710;23.378;2024-02-26T12:29:04;2.23;;;1.67;;
20076;SDS011;12348;42.710;23.378;2024-02-26T12:31:32;6.77;;;2.33;;
20076;SDS011;12348;42.710;23.378;2024-02-26T12:34:02;3.73;;;2.07;;
20076;SDS011;12348;42.710;23.378;2024-02-26T12:36:29;3.93;;;2.30;;
20076;SDS011;12348;42.710;23.378;2024-02-26T12:38:56;4.87;;;1.90;;
20076;SDS011;12348;42.710;23.378;2024-02-26T12:41:23;3.20;;;1.50;;
20076;SDS011;12348;42.710;23.378;2024-02-26T12:43:50;1.70;;;1.60;;
20076;SDS011;12348;42.710;23.378;2024-02-26T12:46:16;4.10;;;1.33;;
20076;SDS011;12348;42.710;23.378;2024-02-26T12:48:46;4.40;;;1.83;;
20076;SDS011;12348;42.710;23.378;2024-02-26T12:51:13;2.27;;;1.50;;
20076;SDS011;12348;42.710;23.378;2024-02-26T12:53:45;4.57;;;2.53;;
20076;SDS011;12348;42.710;23.378;2024-02-26T12:56:15;1.70;;;1.47;;
20076;SDS011;12348;42.710;23.378;2024-02-26T12:58:42;1.50;;;1.33;;
20076;SDS011;12348;42.710;23.378;2024-02-26T13:01:13;2.53;;;1.57;;
20076;SDS011;12348;42.710;23.378;2024-02-26T13:03:41;3.07;;;1.97;;
20076;SDS011;12348;42.710;23.378;2024-02-26T13:06:12;5.23;;;2.03;;
20076;SDS011;12348;42.710;23.378;2024-02-26T13:08:39;1.80;;;1.30;;
20076;SDS011;12348;42.710;23.378;2024-02-26T13:11:06;3.67;;;1.87;;
20076;SDS011;12348;42.710;23.378;2024-02-26T13:13:33;2.43;;;1.73;;
20076;SDS011;12348;42.710;23.378;2024-02-26T13:16:03;3.33;;;1.77;;
20076;SDS011;12348;42.710;23.378;2024-02-26T13:18:33;4.53;;;2.43;;
20076;SDS011;12348;42.710;23.378;2024-02-26T13:21:08;1.70;;;1.43;;
20076;SDS011;12348;42.710;23.378;2024-02-26T13:23:42;2.00;;;1.60;;
20076;SDS011;12348;42.710;23.378;2024-02-26T13:26:11;3.27;;;1.70;;
20076;SDS011;12348;42.710;23.378;2024-02-26T13:28:39;1.60;;;1.50;;
20076;SDS011;12348;42.710;23.378;2024-02-26T13:31:06;2.07;;;1.63;;
20076;SDS011;12348;42.710;23.378;2024-02-26T13:33:34;1.57;;;1.47;;
20076;SDS011;12348;42.710;23.378;2024-02-26T13:36:01;4.83;;;2.27;;
20076;SDS011;12348;42.710;23.378;2024-02-26T13:38:30;1.87;;;0.90;;
20076;SDS011;12348;42.710;23.378;2024-02-26T13:40:57;2.53;;;1.27;;
20076;SDS011;12348;42.710;23.378;2024-02-26T13:43:24;2.23;;;1.73;;
20076;SDS011;12348;42.710;23.378;2024-02-26T13:45:51;2.43;;;1.53;;
20076;SDS011;12348;42.710;23.378;2024-02-26T13:48:17;7.47;;;2.33;;
20076;SDS011;12348;42.710;23.378;2024-02-26T13:50:44;2.40;;;1.50;;
20076;SDS011;12348;42.710;23.378;2024-02-26T13:53:11;4.40;;;1.70;;
20076;SDS011;12348;42.710;23.378;2024-02-26T13:55:40;2.67;;;1.43;;
20076;SDS011;12348;42.710;23.378;2024-02-26T13:58:08;2.13;;;1.50;;
20076;SDS011;12348;42.710;23.378;2024-02-26T14:00:38;1.33;;;1.23;;
20076;SDS011;12348;42.710;23.378;2024-02-26T14:03:06;3.00;;;2.70;;
20076;SDS011;12348;42.710;23.378;2024-02-26T14:05:33;3.90;;;1.97;;
20076;SDS011;12348;42.710;23.378;2024-02-26T14:08:00;1.57;;;1.47;;
20076;SDS011;12348;42.710;23.378;2024-02-26T14:10:26;3.30;;;2.33;;
20076;SDS011;12348;42.710;23.378;2024-02-26T14:12:54;3.77;;;2.80;;
20076;SDS011;12348;42.710;23.378;2024-02-26T14:15:21;3.80;;;2.87;;
20076;SDS011;12348;42.710;23.378;2024-02-26T14:17:49;3.20;;;1.87;;
20076;SDS011;12348;42.710;23.378;2024-02-26T14:20:19;5.40;;;2.93;;
20076;SDS011;12348;42.710;23.378;2024-02-26T14:22:46;4.37;;;2.37;;
20076;SDS011;12348;42.710;23.378;2024-02-26T14:25:13;1.90;;;1.40;;
20076;SDS011;12348;42.710;23.378;2024-02-26T14:27:40;5.23;;;3.40;;
20076;SDS011;12348;42.710;23.378;2024-02-26T14:30:08;1.83;;;1.43;;
20076;SDS011;12348;42.710;23.378;2024-02-26T14:32:35;2.60;;;1.57;;
20076;SDS011;12348;42.710;23.378;2024-02-26T14:35:04;6.30;;;1.90;;